createdAt,value
2022-10-11T00:01:17.448Z,78.31
2022-10-11T00:03:43.995Z,77.65
2022-10-11T00:06:10.441Z,67.54
2022-10-11T00:08:36.921Z,77.73
2022-10-11T00:11:06.077Z,76.92
2022-10-11T00:13:33.149Z,76.63
2022-10-11T00:15:59.598Z,76.51
2022-10-11T00:18:26.819Z,76.44
2022-10-11T00:21:04.632Z,76.95
2022-10-11T00:23:31.576Z,76.59
2022-10-11T00:26:00.213Z,70.54
2022-10-11T00:28:26.980Z,79.84
2022-10-11T00:30:53.475Z,77.30
2022-10-11T00:33:19.894Z,76.65
2022-10-11T00:35:46.352Z,76.71
2022-10-11T00:38:12.874Z,76.12
2022-10-11T00:40:39.256Z,75.79
2022-10-11T00:43:15.093Z,76.43
2022-10-11T00:45:56.820Z,76.55
2022-10-11T00:48:27.700Z,76.67
2022-10-11T00:50:57.002Z,76.90
2022-10-11T00:53:23.885Z,72.60
2022-10-11T00:55:59.672Z,76.94
2022-10-11T00:58:26.482Z,76.72
2022-10-11T01:00:54.133Z,76.61
2022-10-11T01:03:24.774Z,76.84
2022-10-11T01:05:51.811Z,76.45
2022-10-11T01:08:18.532Z,76.42
2022-10-11T01:10:45.086Z,76.77
2022-10-11T01:13:39.234Z,76.71
2022-10-11T01:16:16.315Z,76.73
2022-10-11T01:19:21.821Z,78.68
2022-10-11T01:22:19.271Z,80.58
2022-10-11T01:25:10.886Z,76.47
2022-10-11T01:27:42.345Z,77.67
2022-10-11T01:30:34.139Z,77.61
2022-10-11T01:33:19.037Z,78.99
2022-10-11T01:35:56.976Z,79.77
2022-10-11T01:38:31.631Z,78.01
2022-10-11T01:41:23.550Z,83.93
2022-10-11T01:43:54.405Z,85.81
2022-10-11T01:46:21.434Z,83.71
2022-10-11T01:48:54.758Z,79.83
2022-10-11T01:51:24.436Z,78.46
2022-10-11T01:53:50.767Z,78.02
2022-10-11T01:56:41.816Z,78.14
2022-10-11T01:59:19.691Z,77.61
2022-10-11T02:02:01.303Z,77.72
2022-10-11T02:04:36.204Z,77.78
2022-10-11T02:07:08.306Z,77.60
2022-10-11T02:09:48.176Z,77.41
2022-10-11T02:12:30.305Z,77.63
2022-10-11T02:14:59.383Z,77.49
2022-10-11T02:17:32.347Z,77.55
2022-10-11T02:20:03.364Z,77.42
2022-10-11T02:22:38.717Z,77.46
2022-10-11T02:25:11.003Z,77.31
2022-10-11T02:27:40.589Z,77.44
2022-10-11T02:30:07.848Z,77.29
2022-10-11T02:32:38.071Z,77.21
2022-10-11T02:35:04.922Z,78.61
2022-10-11T02:37:39.595Z,79.27
2022-10-11T02:40:32.309Z,77.73
2022-10-11T02:43:12.906Z,77.33
2022-10-11T02:45:44.649Z,76.99
2022-10-11T02:48:12.459Z,77.49
2022-10-11T02:50:40.380Z,77.48
2022-10-11T02:53:07.487Z,77.40
2022-10-11T02:55:34.681Z,77.09
2022-10-11T02:58:01.492Z,77.59
2022-10-11T03:00:28.349Z,77.36
2022-10-11T03:02:54.906Z,77.39
2022-10-11T03:05:22.437Z,76.84
2022-10-11T03:07:48.915Z,77.19
2022-10-11T03:10:15.405Z,77.32
2022-10-11T03:12:41.911Z,77.17
2022-10-11T03:15:08.756Z,77.27
2022-10-11T03:17:36.845Z,77.47
2022-10-11T03:20:07.265Z,76.95
2022-10-11T03:22:33.786Z,75.81
2022-10-11T03:25:04.045Z,81.83
2022-10-11T03:27:31.520Z,80.87
2022-10-11T03:29:57.982Z,77.89
2022-10-11T03:32:24.984Z,77.76
2022-10-11T03:34:51.447Z,77.32
2022-10-11T03:37:18.266Z,77.20
2022-10-11T03:39:45.686Z,77.30
2022-10-11T03:42:12.833Z,77.00
2022-10-11T03:44:39.288Z,77.16
2022-10-11T03:47:06.103Z,77.24
2022-10-11T03:49:32.515Z,76.96
2022-10-11T03:51:59.150Z,77.12
2022-10-11T03:54:25.974Z,77.52
2022-10-11T03:56:52.607Z,76.78
2022-10-11T03:59:19.080Z,77.50
2022-10-11T04:01:45.516Z,77.22
2022-10-11T04:04:12.048Z,77.21
2022-10-11T04:06:38.427Z,77.49
2022-10-11T04:09:05.068Z,77.00
2022-10-11T04:11:31.459Z,76.49
2022-10-11T04:13:57.988Z,77.16
2022-10-11T04:16:24.430Z,77.20
2022-10-11T04:18:50.911Z,76.95
2022-10-11T04:21:17.934Z,76.95
2022-10-11T04:23:44.440Z,77.31
2022-10-11T04:26:10.989Z,76.99
2022-10-11T04:28:37.556Z,77.20
2022-10-11T04:31:05.182Z,76.82
2022-10-11T04:33:31.642Z,77.43
2022-10-11T04:35:58.094Z,77.22
2022-10-11T04:38:24.628Z,76.68
2022-10-11T04:40:51.195Z,77.14
2022-10-11T04:43:19.016Z,77.00
2022-10-11T04:45:45.520Z,76.82
2022-10-11T04:48:11.947Z,77.05
2022-10-11T04:50:38.423Z,77.01
2022-10-11T04:53:04.984Z,77.00
2022-10-11T04:55:31.507Z,76.91
2022-10-11T04:57:57.940Z,77.00
2022-10-11T05:00:24.404Z,77.10
2022-10-11T05:02:52.176Z,77.20
2022-10-11T05:05:18.587Z,76.70
2022-10-11T05:07:45.034Z,77.12
2022-10-11T05:10:11.498Z,77.01
2022-10-11T05:12:37.961Z,76.53
2022-10-11T05:15:04.984Z,76.98
2022-10-11T05:17:32.351Z,77.33
2022-10-11T05:19:58.779Z,75.57
2022-10-11T05:22:25.230Z,76.83
2022-10-11T05:24:51.602Z,77.73
2022-10-11T05:27:18.067Z,77.54
2022-10-11T05:29:44.572Z,77.58
2022-10-11T05:32:11.070Z,77.10
2022-10-11T05:34:37.564Z,77.10
2022-10-11T05:37:04.368Z,76.98
2022-10-11T05:39:30.852Z,75.56
2022-10-11T05:41:57.359Z,77.55
2022-10-11T05:44:23.915Z,77.39
2022-10-11T05:46:50.315Z,77.27
2022-10-11T05:49:16.733Z,77.61
2022-10-11T05:51:43.538Z,77.54
2022-10-11T05:54:09.926Z,77.40
2022-10-11T05:56:36.358Z,76.85
2022-10-11T05:59:04.182Z,75.09
2022-10-11T06:01:30.713Z,77.37
2022-10-11T06:03:57.255Z,77.14
2022-10-11T06:06:23.815Z,77.55
2022-10-11T06:08:50.574Z,77.29
2022-10-11T06:11:20.455Z,77.24
2022-10-11T06:13:47.505Z,76.83
2022-10-11T06:16:14.501Z,77.04
2022-10-11T06:18:41.012Z,76.85
2022-10-11T06:21:07.520Z,77.20
2022-10-11T06:23:34.153Z,81.20
2022-10-11T06:26:05.532Z,78.43
2022-10-11T06:28:33.396Z,77.80
2022-10-11T06:31:00.319Z,77.52
2022-10-11T06:33:27.205Z,77.35
2022-10-11T06:36:06.897Z,77.08
2022-10-11T06:38:33.960Z,77.26
2022-10-11T06:41:17.243Z,77.67
2022-10-11T06:43:44.684Z,77.03
2022-10-11T06:46:11.479Z,77.13
2022-10-11T06:48:46.134Z,76.85
2022-10-11T06:51:13.898Z,76.79
2022-10-11T06:53:40.790Z,77.20
2022-10-11T06:56:12.535Z,76.90
2022-10-11T06:58:39.878Z,76.46
2022-10-11T07:01:12.573Z,77.52
2022-10-11T07:03:39.424Z,77.10
2022-10-11T07:06:11.260Z,77.64
2022-10-11T07:08:38.459Z,77.34
2022-10-11T07:11:10.868Z,77.12
2022-10-11T07:13:38.567Z,76.82
2022-10-11T07:16:08.240Z,77.63
2022-10-11T07:18:35.149Z,80.67
2022-10-11T07:21:11.257Z,84.23
2022-10-11T07:23:38.463Z,81.98
2022-10-11T07:26:07.542Z,81.62
2022-10-11T07:28:35.775Z,78.58
2022-10-11T07:31:19.642Z,78.00
2022-10-11T07:33:46.121Z,79.88
2022-10-11T07:36:13.415Z,82.68
2022-10-11T07:38:41.278Z,78.59
2022-10-11T07:41:07.831Z,78.15
2022-10-11T07:43:34.293Z,77.99
2022-10-11T07:46:04.420Z,77.26
2022-10-11T07:48:32.980Z,77.90
2022-10-11T07:51:07.509Z,77.99
2022-10-11T07:54:09.618Z,79.58
2022-10-11T07:56:37.485Z,80.98
2022-10-11T07:59:04.172Z,79.37
2022-10-11T08:01:31.390Z,78.08
2022-10-11T08:03:58.747Z,78.30
2022-10-11T08:06:30.318Z,77.51
2022-10-11T08:08:58.844Z,77.74
2022-10-11T08:11:31.024Z,80.89
2022-10-11T08:13:59.415Z,81.15
2022-10-11T08:16:25.909Z,81.32
2022-10-11T08:18:54.353Z,80.78
2022-10-11T08:24:03.918Z,81.22
2022-10-11T08:26:31.063Z,81.09
2022-10-11T08:28:58.706Z,81.89
2022-10-11T08:31:25.173Z,81.77
2022-10-11T08:33:51.633Z,81.67
2022-10-11T08:36:17.997Z,82.07
2022-10-11T08:38:44.464Z,81.41
2022-10-11T08:41:26.620Z,81.98
2022-10-11T08:44:26.151Z,81.33
2022-10-11T08:47:00.442Z,80.77
2022-10-11T08:49:32.452Z,80.64
2022-10-11T08:52:06.397Z,80.14
2022-10-11T08:55:11.095Z,81.01
2022-10-11T08:57:39.482Z,80.42
2022-10-11T09:00:11.215Z,80.68
2022-10-11T09:03:09.270Z,79.95
2022-10-11T09:05:58.555Z,80.99
2022-10-11T09:09:07.059Z,79.31
2022-10-11T09:11:36.085Z,79.06
2022-10-11T09:14:17.695Z,81.51
2022-10-11T09:16:56.239Z,81.24
2022-10-11T09:19:42.809Z,79.88
2022-10-11T09:22:37.580Z,81.13
2022-10-11T09:25:25.224Z,81.20
2022-10-11T09:28:05.409Z,82.91
2022-10-11T09:30:33.117Z,83.00
2022-10-11T09:33:08.545Z,83.23
2022-10-11T09:35:42.799Z,82.78
2022-10-11T09:38:36.814Z,82.06
2022-10-11T09:41:16.858Z,80.21
2022-10-11T09:43:51.820Z,79.62
2022-10-11T09:46:35.132Z,80.39
2022-10-11T09:49:07.792Z,79.33
2022-10-11T09:51:34.472Z,79.22
2022-10-11T09:54:10.444Z,82.51
2022-10-11T09:56:42.876Z,81.34
2022-10-11T09:59:33.071Z,80.01
2022-10-11T10:02:06.740Z,80.82
2022-10-11T10:04:33.258Z,78.77
2022-10-11T10:07:12.796Z,78.91
2022-10-11T10:09:39.215Z,79.92
2022-10-11T10:12:12.655Z,78.75
2022-10-11T10:14:41.029Z,81.13
2022-10-11T10:17:17.314Z,81.13
2022-10-11T10:19:50.381Z,81.49
2022-10-11T10:22:20.283Z,82.61
2022-10-11T10:24:48.710Z,82.45
2022-10-11T10:27:21.144Z,81.67
2022-10-11T10:30:02.585Z,80.96
2022-10-11T10:32:35.935Z,79.71
2022-10-11T10:35:16.697Z,80.74
2022-10-11T10:37:57.729Z,78.52
2022-10-11T10:40:47.068Z,80.28
2022-10-11T10:43:16.420Z,79.04
2022-10-11T10:45:49.088Z,79.34
2022-10-11T10:48:48.163Z,79.78
2022-10-11T10:51:28.149Z,80.18
2022-10-11T10:54:14.621Z,79.39
2022-10-11T10:56:51.239Z,76.79
2022-10-11T10:59:53.536Z,73.92
2022-10-11T11:02:41.615Z,80.63
2022-10-11T11:05:13.548Z,77.63
2022-10-11T11:07:47.158Z,81.06
2022-10-11T11:10:19.263Z,79.50
2022-10-11T11:12:56.776Z,74.55
2022-10-11T11:15:50.870Z,74.78
2022-10-11T11:18:39.653Z,73.88
2022-10-11T11:21:32.687Z,74.93
2022-10-11T11:24:37.027Z,75.03
2022-10-11T11:27:17.464Z,74.16
2022-10-11T11:30:01.887Z,76.63
2022-10-11T11:32:49.390Z,73.95
2022-10-11T11:35:24.793Z,74.53
2022-10-11T11:38:02.474Z,74.85
2022-10-11T11:40:43.055Z,75.34
2022-10-11T11:43:19.369Z,76.77
2022-10-11T11:45:51.668Z,77.72
2022-10-11T11:48:20.992Z,77.79
2022-10-11T11:51:10.068Z,76.39
2022-10-11T11:53:49.891Z,73.74
2022-10-11T11:56:22.209Z,73.64
2022-10-11T11:58:59.561Z,73.21
2022-10-11T12:01:39.827Z,75.91
2022-10-11T12:04:29.443Z,76.88
2022-10-11T12:07:18.136Z,75.48
2022-10-11T12:09:50.678Z,72.69
2022-10-11T12:12:29.479Z,72.41
2022-10-11T12:15:20.167Z,75.71
2022-10-11T12:17:59.130Z,76.97
2022-10-11T12:20:28.668Z,74.91
2022-10-11T12:23:02.151Z,75.86
2022-10-11T12:25:28.722Z,75.83
2022-10-11T12:27:57.497Z,75.56
2022-10-11T12:30:42.772Z,75.49
2022-10-11T12:33:22.880Z,77.19
2022-10-11T12:36:01.515Z,74.08
2022-10-11T12:38:39.928Z,73.59
2022-10-11T12:41:09.112Z,78.21
2022-10-11T12:43:57.076Z,75.29
2022-10-11T12:46:33.284Z,75.91
2022-10-11T12:49:21.294Z,74.79
2022-10-11T12:52:12.887Z,75.25
2022-10-11T12:55:03.102Z,76.16
2022-10-11T12:57:50.872Z,74.96
2022-10-11T13:00:21.578Z,75.66
2022-10-11T13:02:49.318Z,75.04
2022-10-11T13:05:44.998Z,76.40
2022-10-11T13:08:18.818Z,75.12
2022-10-11T13:10:47.546Z,75.90
2022-10-11T13:13:27.212Z,74.34
2022-10-11T13:15:56.541Z,75.01
2022-10-11T13:18:25.425Z,74.55
2022-10-11T13:20:51.944Z,74.35
2022-10-11T13:23:28.269Z,74.49
2022-10-11T13:25:55.943Z,75.03
2022-10-11T13:28:23.857Z,74.57
2022-10-11T13:30:54.425Z,74.86
2022-10-11T13:33:33.997Z,73.74
2022-10-11T13:36:02.865Z,74.95
2022-10-11T13:38:32.933Z,76.18
2022-10-11T13:41:03.086Z,76.89
2022-10-11T13:43:31.034Z,76.67
2022-10-11T13:45:59.964Z,74.87
2022-10-11T13:48:31.618Z,73.60
2022-10-11T13:51:09.358Z,76.40
2022-10-11T13:53:35.918Z,75.47
2022-10-11T13:56:08.534Z,76.74
2022-10-11T13:58:54.859Z,77.25
2022-10-11T14:01:25.001Z,77.36
2022-10-11T14:04:18.194Z,77.42
2022-10-11T14:06:51.976Z,77.26
2022-10-11T14:09:32.545Z,77.28
2022-10-11T14:12:29.891Z,77.68
2022-10-11T14:14:57.475Z,77.55
2022-10-11T14:17:37.869Z,77.56
2022-10-11T14:20:45.745Z,77.46
2022-10-11T14:23:13.311Z,77.14
2022-10-11T14:25:39.745Z,77.42
2022-10-11T14:28:12.591Z,77.03
2022-10-11T14:30:41.417Z,77.46
2022-10-11T14:33:08.105Z,77.61
2022-10-11T14:35:34.856Z,77.77
2022-10-11T14:38:01.328Z,77.78
2022-10-11T14:40:30.776Z,77.67
2022-10-11T14:42:57.507Z,77.72
2022-10-11T14:45:24.138Z,78.00
2022-10-11T14:47:50.875Z,77.72
2022-10-11T14:50:28.580Z,78.04
2022-10-11T14:52:55.861Z,77.58
2022-10-11T14:55:22.765Z,78.12
2022-10-11T14:57:49.308Z,78.16
2022-10-11T15:00:25.153Z,78.33
2022-10-11T15:02:52.819Z,77.88
2022-10-11T15:05:20.485Z,78.18
2022-10-11T15:07:47.251Z,78.43
2022-10-11T15:10:27.457Z,77.73
2022-10-11T15:12:55.741Z,78.24
2022-10-11T15:15:27.735Z,78.31
2022-10-11T15:17:57.085Z,80.03
2022-10-11T15:20:23.570Z,80.93
2022-10-11T15:22:50.453Z,78.64
2022-10-11T15:25:17.226Z,77.46
2022-10-11T15:27:44.240Z,76.36
2022-10-11T15:30:25.819Z,77.59
2022-10-11T15:32:52.817Z,77.94
2022-10-11T15:35:20.063Z,78.44
2022-10-11T15:37:46.895Z,77.84
2022-10-11T15:40:35.978Z,77.76
2022-10-11T15:43:03.303Z,78.22
2022-10-11T15:45:30.231Z,78.41
2022-10-11T15:47:57.722Z,77.72
2022-10-11T15:50:37.447Z,78.27
2022-10-11T15:53:09.680Z,78.31
2022-10-11T15:55:47.477Z,77.82
2022-10-11T15:58:14.922Z,78.37
2022-10-11T16:00:42.857Z,78.38
2022-10-11T16:03:12.065Z,77.96
2022-10-11T16:05:39.124Z,80.18
2022-10-11T16:08:05.699Z,79.88
2022-10-11T16:10:32.211Z,79.11
2022-10-11T16:12:58.662Z,78.17
2022-10-11T16:15:25.087Z,78.40
2022-10-11T16:17:51.733Z,78.14
2022-10-11T16:20:22.137Z,77.84
2022-10-11T16:22:49.529Z,78.04
2022-10-11T16:25:16.232Z,78.37
2022-10-11T16:27:44.126Z,78.80
2022-10-11T16:30:15.111Z,78.00
2022-10-11T16:32:42.052Z,79.28
2022-10-11T16:35:09.060Z,78.75
2022-10-11T16:37:36.270Z,78.32
2022-10-11T16:40:03.310Z,78.79
2022-10-11T16:42:29.875Z,78.27
2022-10-11T16:44:56.691Z,78.24
2022-10-11T16:47:23.548Z,78.36
2022-10-11T16:49:50.215Z,78.26
2022-10-11T16:52:17.296Z,77.73
2022-10-11T16:54:47.867Z,77.93
2022-10-11T16:57:16.337Z,77.84
2022-10-11T16:59:43.242Z,77.79
2022-10-11T17:02:16.529Z,78.40
2022-10-11T17:04:43.394Z,79.21
2022-10-11T17:07:13.034Z,79.58
2022-10-11T17:09:43.932Z,79.47
2022-10-11T17:12:13.179Z,79.88
2022-10-11T17:14:41.049Z,79.89
2022-10-11T17:17:09.210Z,80.48
2022-10-11T17:19:42.595Z,80.42
2022-10-11T17:22:12.415Z,80.73
2022-10-11T17:24:39.120Z,80.42
2022-10-11T17:27:06.601Z,81.00
2022-10-11T17:29:33.705Z,81.50
2022-10-11T17:32:00.507Z,80.71
2022-10-11T17:34:26.968Z,79.94
2022-10-11T17:36:53.370Z,80.63
2022-10-11T17:39:22.298Z,80.57
2022-10-11T17:41:49.429Z,80.59
2022-10-11T17:44:17.985Z,80.25
2022-10-11T17:46:44.912Z,80.82
2022-10-11T17:49:12.140Z,81.13
2022-10-11T17:51:41.422Z,80.11
2022-10-11T17:54:12.993Z,80.65
2022-10-11T17:56:41.520Z,80.47
2022-10-11T17:59:14.446Z,80.48
2022-10-11T18:01:41.445Z,80.75
2022-10-11T18:04:10.421Z,80.93
2022-10-11T18:06:39.548Z,80.93
2022-10-11T18:09:06.942Z,80.62
2022-10-11T18:11:33.782Z,80.78
2022-10-11T18:14:00.829Z,80.48
2022-10-11T18:16:29.062Z,80.66
2022-10-11T18:18:59.345Z,80.49
2022-10-11T18:21:33.437Z,80.61
2022-10-11T18:24:02.243Z,80.23
2022-10-11T18:26:30.607Z,79.39
2022-10-11T18:28:58.420Z,80.43
2022-10-11T18:31:27.817Z,79.94
2022-10-11T18:33:54.597Z,80.06
2022-10-11T18:36:24.379Z,80.31
2022-10-11T18:38:59.485Z,79.97
2022-10-11T18:41:30.634Z,80.36
2022-10-11T18:44:00.041Z,80.24
2022-10-11T18:46:27.837Z,80.51
2022-10-11T18:48:55.868Z,79.96
2022-10-11T18:51:41.590Z,79.87
2022-10-11T18:54:11.388Z,80.09
2022-10-11T18:56:39.399Z,79.88
2022-10-11T18:59:07.141Z,80.24
2022-10-11T19:01:39.867Z,79.82
2022-10-11T19:04:10.627Z,79.61
2022-10-11T19:06:41.797Z,79.50
2022-10-11T19:09:11.249Z,79.99
2022-10-11T19:11:37.789Z,79.97
2022-10-11T19:14:07.161Z,80.20
2022-10-11T19:16:35.571Z,79.82
2022-10-11T19:19:02.000Z,79.60
2022-10-11T19:21:29.653Z,79.86
2022-10-11T19:23:56.971Z,79.67
2022-10-11T19:26:33.317Z,79.93
2022-10-11T19:29:03.425Z,79.35
2022-10-11T19:31:30.620Z,79.56
2022-10-11T19:33:58.018Z,79.93
2022-10-11T19:36:24.841Z,79.82
2022-10-11T19:38:52.539Z,79.93
2022-10-11T19:41:20.241Z,79.10
2022-10-11T19:43:47.003Z,79.06
2022-10-11T19:46:20.210Z,79.38
2022-10-11T19:48:51.104Z,79.45
2022-10-11T19:51:21.903Z,79.31
2022-10-11T19:53:54.394Z,79.25
2022-10-11T19:56:20.993Z,79.57
2022-10-11T19:58:47.497Z,79.47
2022-10-11T20:01:17.760Z,79.18
2022-10-11T20:03:46.517Z,78.80
2022-10-11T20:06:13.284Z,79.23
2022-10-11T20:08:39.800Z,79.44
2022-10-11T20:11:08.501Z,79.21
2022-10-11T20:13:35.934Z,78.98
2022-10-11T20:16:05.518Z,79.10
2022-10-11T20:18:32.683Z,78.67
2022-10-11T20:21:01.968Z,79.10
2022-10-11T20:23:29.082Z,79.23
2022-10-11T20:25:59.576Z,78.79
2022-10-11T20:28:28.798Z,79.06
2022-10-11T20:30:55.320Z,79.09
2022-10-11T20:33:22.380Z,78.66
2022-10-11T20:36:03.442Z,78.67
2022-10-11T20:38:31.399Z,78.49
2022-10-11T20:40:58.650Z,79.12
2022-10-11T20:43:25.315Z,78.50
2022-10-11T20:46:18.787Z,78.63
2022-10-11T20:48:58.888Z,78.67
2022-10-11T20:51:28.588Z,78.49
2022-10-11T20:53:55.412Z,78.36
2022-10-11T20:56:22.761Z,78.33
2022-10-11T20:58:54.051Z,78.16
2022-10-11T21:01:26.411Z,78.14
2022-10-11T21:03:53.421Z,78.75
2022-10-11T21:06:19.954Z,78.37
2022-10-11T21:08:46.448Z,78.79
2022-10-11T21:11:12.912Z,78.48
2022-10-11T21:13:39.520Z,78.89
2022-10-11T21:16:13.630Z,78.41
2022-10-11T21:18:40.448Z,78.82
2022-10-11T21:21:07.605Z,78.55
2022-10-11T21:23:34.663Z,78.38
2022-10-11T21:26:05.533Z,77.93
2022-10-11T21:28:32.237Z,77.97
2022-10-11T21:31:05.448Z,78.04
2022-10-11T21:33:31.940Z,78.27
2022-10-11T21:35:58.455Z,78.08
2022-10-11T21:38:25.841Z,78.21
2022-10-11T21:40:52.562Z,78.78
2022-10-11T21:43:18.999Z,78.19
2022-10-11T21:45:46.093Z,78.07
2022-10-11T21:48:12.548Z,77.95
2022-10-11T21:50:39.264Z,78.65
2022-10-11T21:53:05.672Z,78.46
2022-10-11T21:55:32.160Z,78.13
2022-10-11T21:57:58.711Z,78.27
2022-10-11T22:00:25.147Z,77.95
2022-10-11T22:02:52.202Z,78.17
2022-10-11T22:05:18.796Z,76.16
2022-10-11T22:07:45.572Z,75.83
2022-10-11T22:10:12.008Z,80.67
2022-10-11T22:12:38.740Z,78.90
2022-10-11T22:15:05.871Z,78.25
2022-10-11T22:17:32.272Z,77.80
2022-10-11T22:19:58.672Z,77.64
2022-10-11T22:22:25.141Z,77.69
2022-10-11T22:24:51.569Z,77.77
2022-10-11T22:27:17.993Z,78.07
2022-10-11T22:29:44.512Z,74.69
2022-10-11T22:32:10.936Z,78.00
2022-10-11T22:34:37.531Z,77.86
2022-10-11T22:37:03.935Z,77.86
2022-10-11T22:39:30.502Z,77.72
2022-10-11T22:41:56.903Z,77.62
2022-10-11T22:44:23.315Z,77.26
2022-10-11T22:46:49.826Z,77.88
2022-10-11T22:49:16.619Z,77.96
2022-10-11T22:51:43.030Z,77.60
2022-10-11T22:54:10.905Z,77.56
2022-10-11T22:56:37.322Z,77.31
2022-10-11T22:59:04.449Z,77.40
2022-10-11T23:01:30.870Z,77.37
2022-10-11T23:03:57.374Z,77.05
2022-10-11T23:06:23.951Z,77.23
2022-10-11T23:08:50.420Z,77.59
2022-10-11T23:11:16.880Z,77.49
2022-10-11T23:13:43.391Z,76.24
2022-10-11T23:16:11.605Z,78.93
2022-10-11T23:18:38.349Z,77.78
2022-10-11T23:21:06.020Z,77.30
2022-10-11T23:23:32.585Z,77.71
2022-10-11T23:26:08.098Z,77.37
2022-10-11T23:28:35.144Z,77.48
2022-10-11T23:31:07.244Z,77.53
2022-10-11T23:33:33.780Z,77.58
2022-10-11T23:36:00.166Z,77.84
2022-10-11T23:38:26.678Z,77.31
2022-10-11T23:40:53.108Z,77.57
2022-10-11T23:43:19.542Z,77.83
2022-10-11T23:45:45.970Z,77.73
2022-10-11T23:48:12.431Z,77.90
2022-10-11T23:50:38.920Z,77.85
2022-10-11T23:53:05.338Z,77.47
2022-10-11T23:55:32.750Z,77.78
2022-10-11T23:57:59.165Z,77.41
